Time;durP1;ratioP1;P1;durP2;ratioP2;P2;SDS_P1;SDS_P2;PMS_P1;PMS_P2;Temp;Humidity;BMP_temperature;BMP_pressure;BME280_temperature;BME280_humidity;BME280_pressure;Samples;Min_cycle;Max_cycle;Signal;HPM_P1;HPM_P2
2022/08/23 00:04:07;;;;;;;24.85;13.05;;;;;;;19.07;75.76;100265.92;3179606;88;21565;-76
2022/08/23 00:09:12;;;;;;;14.83;11.90;;;;;;;19.03;75.94;100264.67;3175894;88;21023;-76
2022/08/23 00:14:16;;;;;;;16.17;12.40;;;;;;;18.99;75.50;100251.17;3180857;89;21018;-76
2022/08/23 00:19:12;;;;;;;15.40;12.23;;;;;;;18.97;75.71;100238.47;3178287;88;21043;-76
2022/08/23 00:24:06;;;;;;;18.92;13.48;;;;;;;18.98;76.13;100241.52;3185169;88;21013;-76
2022/08/23 00:28:57;;;;;;;18.07;13.65;;;;;;;19.02;76.36;100261.61;3150549;89;21651;-76
2022/08/23 00:33:54;;;;;;;14.90;13.08;;;;;;;19.04;76.39;100268.16;3150094;89;20994;-75
2022/08/23 00:38:45;;;;;;;19.48;13.25;;;;;;;19.11;76.75;100258.34;3143737;89;23238;-75
2022/08/23 00:48:36;;;;;;;18.35;13.58;;;;;;;19.22;76.93;100254.51;3148660;87;20990;-76
2022/08/23 00:53:36;;;;;;;21.87;14.20;;;;;;;19.26;77.16;100308.00;3187143;89;21026;-75
2022/08/23 00:58:32;;;;;;;19.27;15.23;;;;;;;19.27;77.32;100295.25;3169030;88;21006;-76
2022/08/23 01:03:30;;;;;;;19.82;14.73;;;;;;;19.29;77.40;100307.94;3168444;89;21046;-76
2022/08/23 01:08:29;;;;;;;15.20;13.43;;;;;;;19.35;77.46;100326.67;3181156;89;21363;-75
2022/08/23 01:13:35;;;;;;;21.45;14.73;;;;;;;19.41;77.38;100337.94;3184696;88;20995;-75
2022/08/23 01:18:30;;;;;;;24.75;14.73;;;;;;;19.45;77.56;100332.59;3198031;87;21530;-76
2022/08/23 01:23:50;;;;;;;21.10;15.65;;;;;;;19.49;77.78;100322.37;3178622;87;38899;-76
2022/08/23 01:28:43;;;;;;;22.70;15.03;;;;;;;19.48;78.27;100345.70;3156068;88;21522;-75
2022/08/23 01:33:38;;;;;;;26.07;16.45;;;;;;;19.47;78.46;100331.63;3176038;88;21049;-76
2022/08/23 01:38:29;;;;;;;22.70;14.87;;;;;;;19.46;78.56;100335.63;3122693;89;21338;-76
2022/08/23 01:43:22;;;;;;;25.30;15.58;;;;;;;19.42;78.66;100342.31;3173538;88;20990;-74
2022/08/23 01:48:17;;;;;;;20.48;15.80;;;;;;;19.43;78.88;100344.49;3195605;87;20962;-74
2022/08/23 01:53:09;;;;;;;18.45;14.15;;;;;;;19.41;79.13;100348.48;3177503;88;21185;-75
2022/08/23 01:58:04;;;;;;;22.42;15.48;;;;;;;19.40;79.30;100343.24;3186685;88;21459;-74
2022/08/23 02:02:58;;;;;;;17.07;15.28;;;;;;;19.40;79.51;100337.51;3159924;88;20968;-74
2022/08/23 02:07:50;;;;;;;18.67;14.78;;;;;;;19.37;79.63;100338.92;3166973;89;21078;-74
2022/08/23 02:12:42;;;;;;;19.30;15.68;;;;;;;19.38;79.70;100345.91;3147305;88;21011;-74
2022/08/23 02:17:35;;;;;;;21.37;14.23;;;;;;;19.39;80.01;100329.20;3187534;89;21029;-75
2022/08/23 02:22:27;;;;;;;18.98;13.85;;;;;;;19.40;80.15;100333.55;3216216;87;21016;-75
2022/08/23 02:27:19;;;;;;;18.00;14.07;;;;;;;19.38;80.07;100325.28;3207251;87;21021;-75
2022/08/23 02:32:13;;;;;;;19.48;15.45;;;;;;;19.37;80.32;100299.39;3167290;89;21061;-75
2022/08/23 02:37:06;;;;;;;23.25;16.32;;;;;;;19.39;80.29;100304.63;3194593;87;20933;-75
2022/08/23 02:41:59;;;;;;;21.45;17.80;;;;;;;19.38;80.30;100298.92;3191304;87;22058;-75
2022/08/23 02:46:52;;;;;;;30.52;21.33;;;;;;;19.37;80.46;100302.02;3180371;87;21029;-75
2022/08/23 02:51:44;;;;;;;25.12;18.98;;;;;;;19.37;80.49;100304.66;3189878;88;20912;-75
2022/08/23 02:56:38;;;;;;;20.62;14.85;;;;;;;19.37;80.66;100287.95;3199159;88;21556;-75
2022/08/23 03:01:35;;;;;;;22.75;15.35;;;;;;;19.35;80.77;100272.21;3176627;88;21003;-75
2022/08/23 03:06:28;;;;;;;21.93;17.80;;;;;;;19.34;80.89;100266.97;3171607;88;21038;-75
2022/08/23 03:11:22;;;;;;;18.87;15.00;;;;;;;19.35;81.16;100268.69;3189951;88;21540;-75
2022/08/23 03:16:19;;;;;;;17.05;14.75;;;;;;;19.33;81.23;100268.72;3150689;88;21026;-75
2022/08/23 03:21:11;;;;;;;15.93;14.00;;;;;;;19.34;81.29;100266.51;3179867;87;20994;-75
2022/08/23 03:26:07;;;;;;;18.37;15.13;;;;;;;19.35;81.39;100276.16;3172634;89;20982;-75
2022/08/23 03:31:00;;;;;;;19.40;15.68;;;;;;;19.36;81.51;100274.38;3176933;87;21306;-76
2022/08/23 03:35:51;;;;;;;21.35;15.03;;;;;;;19.35;81.54;100281.44;3209241;86;20998;-75
2022/08/23 03:40:43;;;;;;;17.87;14.28;;;;;;;19.38;81.70;100282.65;3179562;88;20983;-75
2022/08/23 03:45:34;;;;;;;20.17;14.43;;;;;;;19.38;81.70;100277.37;3188819;88;21036;-75
2022/08/23 03:50:26;;;;;;;18.05;14.28;;;;;;;19.38;81.70;100277.37;3153331;89;21544;-75
2022/08/23 03:55:19;;;;;;;15.70;14.07;;;;;;;19.38;81.59;100277.37;3194273;89;22263;-76
2022/08/23 04:00:15;;;;;;;20.32;13.50;;;;;;;19.39;81.68;100274.31;3183976;89;21028;-75
2022/08/23 04:05:09;;;;;;;15.72;12.25;;;;;;;19.38;81.61;100269.47;3133644;89;21293;-76
2022/08/23 04:10:05;;;;;;;13.83;12.18;;;;;;;19.39;81.50;100269.89;3105861;89;21501;-75
2022/08/23 04:14:58;;;;;;;17.00;13.93;;;;;;;19.38;81.53;100272.11;3201553;87;21034;-75
2022/08/23 04:19:50;;;;;;;14.53;13.03;;;;;;;19.37;81.49;100263.80;3155460;88;21041;-75
2022/08/23 04:24:42;;;;;;;15.05;11.85;;;;;;;19.38;81.53;100264.20;3123013;88;21011;-75
2022/08/23 04:29:34;;;;;;;14.60;12.50;;;;;;;19.39;81.67;100272.53;3157714;88;21080;-75
2022/08/23 04:34:26;;;;;;;13.35;11.85;;;;;;;19.40;81.64;100279.52;3166010;88;21143;-75
2022/08/23 04:39:18;;;;;;;12.37;11.08;;;;;;;19.40;81.53;100296.65;3181174;88;22106;-75
2022/08/23 04:44:10;;;;;;;12.88;11.00;;;;;;;19.38;81.61;100291.87;3187526;87;22462;-76
2022/08/23 04:49:02;;;;;;;12.53;11.22;;;;;;;19.37;81.55;100291.48;3151016;88;20994;-76
2022/08/23 04:53:54;;;;;;;13.00;11.43;;;;;;;19.36;81.83;100289.73;3162907;89;21424;-76
2022/08/23 04:58:48;;;;;;;12.78;11.50;;;;;;;19.41;82.04;100301.49;3135604;89;21015;-75
2022/08/23 05:03:39;;;;;;;13.48;12.03;;;;;;;19.44;82.11;100304.02;3146342;89;21473;-75
2022/08/23 05:08:32;;;;;;;12.85;11.55;;;;;;;19.46;82.15;100304.87;3155237;88;21211;-75
2022/08/23 05:13:24;;;;;;;14.15;11.18;;;;;;;19.50;82.26;100310.94;3195150;88;21030;-75
2022/08/23 05:18:15;;;;;;;12.58;10.90;;;;;;;19.55;82.19;100313.86;3205562;87;21544;-74
2022/08/23 05:23:07;;;;;;;15.65;10.78;;;;;;;19.60;82.30;100324.27;3161780;89;21011;-75
2022/08/23 05:28:00;;;;;;;12.88;10.85;;;;;;;19.65;82.27;100317.09;3176677;87;21254;-75
2022/08/23 05:32:51;;;;;;;12.82;10.98;;;;;;;19.73;82.35;100320.44;3171342;88;21143;-75
2022/08/23 05:37:43;;;;;;;14.68;11.50;;;;;;;19.79;82.31;100315.45;3159792;88;20994;-75
2022/08/23 05:42:34;;;;;;;11.53;10.32;;;;;;;19.86;82.24;100316.15;3176645;88;21500;-75
2022/08/23 05:47:26;;;;;;;12.28;10.30;;;;;;;19.93;82.27;100322.98;3168826;88;21006;-77
2022/08/23 05:52:20;;;;;;;14.90;10.98;;;;;;;20.00;82.28;100332.45;3163423;89;20963;-76
2022/08/23 05:57:11;;;;;;;13.05;11.53;;;;;;;20.07;82.29;100335.34;3191476;88;21553;-75
2022/08/23 06:02:04;;;;;;;12.00;10.80;;;;;;;20.16;82.33;100348.27;3160501;88;20989;-75
2022/08/23 06:06:57;;;;;;;12.13;10.75;;;;;;;20.26;82.14;100353.27;3185429;87;20997;-75
2022/08/23 06:11:49;;;;;;;12.25;10.72;;;;;;;20.37;82.08;100359.98;3202198;87;20999;-75
2022/08/23 06:16:47;;;;;;;15.50;11.88;;;;;;;20.48;82.08;100359.66;3114851;89;21399;-75
2022/08/23 06:21:42;;;;;;;13.98;10.78;;;;;;;20.67;82.12;100364.41;3183110;88;21069;-75
2022/08/23 06:26:41;;;;;;;12.33;10.63;;;;;;;20.88;82.04;100367.72;3153841;87;21926;-75
2022/08/23 06:31:49;;;;;;;12.58;11.28;;;;;;;21.07;81.93;100368.02;3162432;88;21513;-76
2022/08/23 06:36:42;;;;;;;11.83;10.58;;;;;;;21.26;81.72;100373.55;3182806;87;20986;-75
2022/08/23 06:41:38;;;;;;;14.93;10.80;;;;;;;21.45;81.59;100378.25;3191306;88;20998;-75
2022/08/23 06:46:48;;;;;;;12.13;9.65;;;;;;;21.66;81.21;100376.23;3126417;89;21000;-76
2022/08/23 06:57:31;;;;;;;12.63;9.90;;;;;;;22.55;80.25;100377.44;3149007;89;21715;-75
2022/08/23 07:02:39;;;;;;;14.40;9.55;;;;;;;23.05;79.23;100377.75;3080318;90;21076;-75
2022/08/23 07:07:49;;;;;;;12.28;9.53;;;;;;;23.67;78.50;100375.22;3158588;89;21520;-76
2022/08/23 07:12:41;;;;;;;14.53;10.05;;;;;;;24.03;78.01;100370.58;3099673;89;22030;-75
2022/08/23 07:17:46;;;;;;;13.22;9.15;;;;;;;24.19;77.60;100371.61;3152095;88;21062;-77
2022/08/23 07:23:13;;;;;;;;;;;;;;;;;;;;;
2022/08/23 07:28:21;;;;;;;10.63;8.57;;;;;;;24.89;75.99;100367.48;3094379;90;21009;-76
2022/08/23 07:33:25;;;;;;;12.60;7.92;;;;;;;25.49;75.17;100363.23;3078893;92;21813;-73
2022/08/23 07:38:36;;;;;;;14.07;7.72;;;;;;;26.18;73.75;100373.44;3082847;91;21134;-76
2022/08/23 08:01:25;;;;;;;;;;;;;;;;;;;;;
2022/08/23 08:24:11;;;;;;;;;;;;;;;;;;;;;
2022/08/23 08:48:07;;;;;;;17.10;8.35;;;;;;;27.12;72.99;100376.28;2405549;114;21322;-74
2022/08/23 08:53:05;;;;;;;18.45;8.05;;;;;;;27.03;71.22;100386.64;2408407;115;21190;-72
2022/08/23 08:58:09;;;;;;;22.13;10.55;;;;;;;26.98;71.89;100381.06;2471063;112;21911;-73
2022/08/23 09:08:57;;;;;;;;;;;;;;;;;;;;;
2022/08/23 09:14:41;;;;;;;;;;;;;;;;;;;;;
2022/08/23 09:20:10;;;;;;;;;;;;;;;;;;;;;
2022/08/23 09:25:08;;;;;;;19.32;8.30;;;;;;;28.62;66.88;100376.70;2997771;92;21835;-73
2022/08/23 09:30:31;;;;;;;;;;;;;;;;;;;;;
2022/08/23 09:35:34;;;;;;;21.20;7.33;;;;;;;29.01;64.63;100369.70;2840307;97;21643;-73
2022/08/23 09:41:04;;;;;;;21.27;8.15;;;;;;;28.99;63.75;100375.63;3057104;91;21059;-74
2022/08/23 09:58:31;;;;;;;25.30;7.15;;;;;;;29.84;60.69;100372.22;3058967;91;21700;-74
2022/08/23 10:04:09;;;;;;;20.15;7.50;;;;;;;29.93;59.77;100366.20;2973929;93;21078;-74
2022/08/23 10:14:53;;;;;;;21.05;6.83;;;;;;;30.49;59.29;100359.64;2897997;94;21145;-74
2022/08/23 10:26:43;;;;;;;22.35;7.10;;;;;;;33.95;51.92;100362.37;2766825;100;21099;-75
2022/08/23 10:32:08;;;;;;;20.90;7.37;;;;;;;34.83;50.01;100371.68;2691640;103;21680;-75
2022/08/23 10:37:35;;;;;;;19.23;5.97;;;;;;;36.56;47.32;100366.28;2687550;103;21363;-74
2022/08/23 10:43:29;;;;;;;;;;;;;;;;;;;;;
2022/08/23 10:59:30;;;;;;;21.82;7.20;;;;;;;38.40;42.92;100355.27;2698487;101;21444;-74
2022/08/23 11:05:08;;;;;;;16.10;5.45;;;;;;;38.66;41.70;100359.30;2839785;95;21097;-78
2022/08/23 11:10:57;;;;;;;;;;;;;;;;;;;;;
2022/08/23 11:34:50;;;;;;;;;;;;;;;;;;;;;
2022/08/23 11:46:00;;;;;;;;;;;;;;;;;;;;;
2022/08/23 12:10:15;;;;;;;;;;;;;;;;;;;;;
2022/08/23 12:16:00;;;;;;;;;;;;;;;;;;;;;
2022/08/23 13:38:42;;;;;;;;;;;;;;;;;;;;;
2022/08/23 13:50:21;;;;;;;;;;;;;;;;;;;;;
2022/08/23 14:24:37;;;;;;;;;;;;;;;;;;;;;
2022/08/23 14:30:51;;;;;;;;;;;;;;;;;;;;;
2022/08/23 14:47:48;;;;;;;52.78;10.93;;;;;;;31.64;42.53;100328.73;2660921;105;21181;-75
2022/08/23 14:53:42;;;;;;;;;;;;;;;;;;;;;
2022/08/23 15:10:51;;;;;;;;;;;;;;;;;;;;;
2022/08/23 15:21:45;;;;;;;45.63;9.95;;;;;;;29.32;47.43;100346.30;2682531;103;21461;-75
2022/08/23 15:32:49;;;;;;;36.05;10.35;;;;;;;28.89;48.49;100357.51;2647501;105;21291;-75
2022/08/23 15:56:18;;;;;;;42.48;9.28;;;;;;;27.91;52.78;100359.69;2770262;100;21146;-76
2022/08/23 16:07:34;;;;;;;;;;;;;;;;;;;;;
2022/08/23 16:13:32;;;;;;;42.15;10.10;;;;;;;27.31;54.04;100381.45;2743565;101;21214;-75
2022/08/23 16:31:32;;;;;;;;;;;;;;;;;;;;;
2022/08/23 16:36:36;;;;;;;38.95;10.13;;;;;;;26.76;56.42;100392.58;2635261;104;21129;-75
2022/08/23 16:54:00;;;;;;;;;;;;;;;;;;;;;
2022/08/23 17:00:13;;;;;;;39.88;11.15;;;;;;;26.29;57.65;100428.84;2790088;100;21107;-75
2022/08/23 17:16:34;;;;;;;;;;;;;;;;;;;;;
2022/08/23 17:22:32;;;;;;;;;;;;;;;;;;;;;
2022/08/23 17:27:27;;;;;;;;;;;;;;;;;;;;;
2022/08/23 17:38:54;;;;;;;31.95;8.40;;;;;;;25.53;59.06;100479.72;2715841;102;21184;-75
2022/08/23 17:44:27;;;;;;;;;;;;;;;;;;;;;
2022/08/23 17:50:09;;;;;;;;;;;;;;;;;;;;;
2022/08/23 17:55:45;;;;;;;;;;;;;;;;;;;;;
2022/08/23 18:07:29;;;;;;;;;;;;;;;;;;;;;
2022/08/23 18:38:33;;;;;;;;;;;;;;;;;;;;;
2022/08/23 18:44:17;;;;;;;;;;;;;;;;;;;;;
2022/08/23 18:50:05;;;;;;;;;;;;;;;;;;;;;
2022/08/23 19:12:26;;;;;;;;;;;;;;;;;;;;;
2022/08/23 19:18:01;;;;;;;;;;;;;;;;;;;;;
2022/08/23 19:23:28;;;;;;;10.75;5.90;;;;;;;23.88;64.71;100560.16;2721276;100;21139;-75
2022/08/23 19:28:54;;;;;;;;;;;;;;;;;;;;;
2022/08/23 19:40:01;;;;;;;8.78;5.42;;;;;;;23.45;65.80;100564.93;2692766;102;21025;-75
2022/08/23 19:57:19;;;;;;;;;;;;;;;;;;;;;
2022/08/23 20:24:46;;;;;;;;;;;;;;;;;;;;;
2022/08/23 20:36:09;;;;;;;13.43;5.87;;;;;;;23.06;67.52;100576.16;3037595;91;21063;-75
2022/08/23 20:41:23;;;;;;;13.03;6.28;;;;;;;23.00;67.73;100578.52;2871359;96;21154;-75
2022/08/23 20:46:43;;;;;;;16.30;7.83;;;;;;;22.93;67.99;100578.34;2771428;98;21125;-75
2022/08/23 20:57:12;;;;;;;10.20;6.20;;;;;;;22.80;68.25;100573.52;2664914;104;21080;-75
2022/08/23 21:08:15;;;;;;;;;;;;;;;;;;;;;
2022/08/23 21:30:36;;;;;;;10.45;6.60;;;;;;;22.17;69.76;100553.14;2898004;96;21488;-75
2022/08/23 21:36:04;;;;;;;;;;;;;;;;;;;;;
2022/08/23 21:47:33;;;;;;;;;;;;;;;;;;;;;
2022/08/23 22:10:46;;;;;;;13.25;7.30;;;;;;;21.44;71.48;100573.53;2849628;97;21072;-75
2022/08/23 22:16:10;;;;;;;10.98;7.55;;;;;;;21.32;71.56;100565.06;2847279;96;22330;-76
2022/08/23 22:21:53;;;;;;;;;;;;;;;;;;;;;
2022/08/23 22:26:53;;;;;;;12.25;7.03;;;;;;;21.20;71.56;100554.85;2958606;93;21100;-75
2022/08/23 22:32:29;;;;;;;10.88;6.92;;;;;;;21.16;71.67;100554.55;2964279;93;21763;-75
2022/08/23 22:38:03;;;;;;;10.68;6.65;;;;;;;21.10;72.01;100550.31;2946522;94;21103;-75
2022/08/23 22:48:56;;;;;;;;;;;;;;;;;;;;;
2022/08/23 23:00:47;;;;;;;9.58;7.28;;;;;;;20.76;72.23;100560.95;2897924;94;21322;-76
2022/08/23 23:11:16;;;;;;;9.68;7.33;;;;;;;20.64;72.60;100563.92;2811232;97;21656;-76
2022/08/23 23:22:44;;;;;;;;;;;;;;;;;;;;;
2022/08/23 23:33:54;;;;;;;10.58;7.12;;;;;;;20.33;73.30;100581.87;2575643;107;21141;-76
2022/08/23 23:51:53;;;;;;;;;;;;;;;;;;;;;
